Time;durP1;ratioP1;P1;durP2;ratioP2;P2;SDS_P1;SDS_P2;PMS_P1;PMS_P2;Temp;Humidity;BMP_temperature;BMP_pressure;BME280_temperature;BME280_humidity;BME280_pressure;Samples;Min_cycle;Max_cycle;Signal;HPM_P1;HPM_P2
2023/04/01 00:00:46;;;;;;;5.37;3.90;;;;;;;;;;5070886;28;20195;-51
2023/04/01 00:03:12;;;;;;;4.93;3.87;;;;;;;;;;5070720;28;20208;-52
2023/04/01 00:05:38;;;;;;;5.97;3.60;;;;;;;;;;5070820;28;20280;-51
2023/04/01 00:08:04;;;;;;;6.60;4.20;;;;;;;;;;5070943;28;20290;-51
2023/04/01 00:10:30;;;;;;;4.23;3.83;;;;;;;;;;5070703;28;20198;-50
2023/04/01 00:12:56;;;;;;;6.97;4.07;;;;;;;;;;5070763;28;20562;-51
2023/04/01 00:15:22;;;;;;;4.50;4.00;;;;;;;;;;5070844;28;20192;-50
2023/04/01 00:17:49;;;;;;;8.03;3.70;;;;;;;;;;5070740;28;20188;-51
2023/04/01 00:20:15;;;;;;;5.37;3.13;;;;;;;;;;5070599;28;20282;-50
2023/04/01 00:22:41;;;;;;;4.77;3.40;;;;;;;;;;5070615;28;20203;-51
2023/04/01 00:25:07;;;;;;;5.63;4.23;;;;;;;;;;5071014;28;20295;-51
2023/04/01 00:27:33;;;;;;;4.03;3.13;;;;;;;;;;5070264;28;20255;-51
2023/04/01 00:29:59;;;;;;;7.93;3.43;;;;;;;;;;5070705;28;20199;-51
2023/04/01 00:32:26;;;;;;;7.00;3.47;;;;;;;;;;5068472;28;20195;-50
2023/04/01 00:34:53;;;;;;;5.10;3.43;;;;;;;;;;5069087;28;20307;-51
2023/04/01 00:37:20;;;;;;;7.93;3.63;;;;;;;;;;5072203;28;20602;-52
2023/04/01 00:39:47;;;;;;;4.23;3.33;;;;;;;;;;5074435;28;20200;-54
2023/04/01 00:42:13;;;;;;;5.07;3.40;;;;;;;;;;5074446;28;20264;-53
2023/04/01 00:44:40;;;;;;;9.13;3.30;;;;;;;;;;5074278;28;20249;-53
2023/04/01 00:47:06;;;;;;;4.27;3.10;;;;;;;;;;5074294;28;20231;-54
2023/04/01 00:49:33;;;;;;;6.73;3.10;;;;;;;;;;5074076;28;20246;-54
2023/04/01 00:52:01;;;;;;;5.20;2.73;;;;;;;;;;5074134;28;20198;-54
2023/04/01 00:54:29;;;;;;;5.37;3.03;;;;;;;;;;5073990;28;20286;-55
2023/04/01 00:56:57;;;;;;;5.60;3.10;;;;;;;;;;5074004;28;20602;-55
2023/04/01 00:59:25;;;;;;;4.60;2.60;;;;;;;;;;5074045;28;20203;-55
2023/04/01 01:01:51;;;;;;;3.23;2.93;;;;;;;;;;5074217;28;20290;-56
2023/04/01 01:04:24;;;;;;;3.77;2.70;;;;;;;;;;5074262;28;20245;-55
2023/04/01 01:06:52;;;;;;;3.00;2.70;;;;;;;;;;5074147;28;20227;-54
2023/04/01 01:09:25;;;;;;;5.83;2.87;;;;;;;;;;5073929;28;20195;-56
2023/04/01 01:11:54;;;;;;;4.00;2.90;;;;;;;;;;5074136;28;20208;-55
2023/04/01 01:14:25;;;;;;;6.33;3.20;;;;;;;;;;5073830;28;20205;-55
2023/04/01 01:16:56;;;;;;;4.47;2.63;;;;;;;;;;5074006;28;20203;-55
2023/04/01 01:19:33;;;;;;;4.07;2.90;;;;;;;;;;5073838;28;20223;-55
2023/04/01 01:22:14;;;;;;;5.33;2.90;;;;;;;;;;5073703;28;20246;-55
2023/04/01 01:24:51;;;;;;;7.07;3.83;;;;;;;;;;5073730;28;20203;-55
2023/04/01 01:27:18;;;;;;;4.80;3.37;;;;;;;;;;5073262;28;20223;-54
2023/04/01 01:29:49;;;;;;;4.83;2.97;;;;;;;;;;5073495;28;20246;-54
2023/04/01 01:32:20;;;;;;;3.77;3.30;;;;;;;;;;5073384;28;20210;-54
2023/04/01 01:37:53;;;;;;;4.07;3.13;;;;;;;;;;5056110;28;20242;-54
2023/04/01 01:40:21;;;;;;;3.60;3.30;;;;;;;;;;5073367;28;20545;-54
2023/04/01 01:42:48;;;;;;;4.60;3.40;;;;;;;;;;5073199;28;20242;-53
2023/04/01 01:45:17;;;;;;;5.63;3.30;;;;;;;;;;5073271;28;20282;-53
2023/04/01 01:47:44;;;;;;;7.03;3.67;;;;;;;;;;5073074;28;20224;-53
2023/04/01 01:50:10;;;;;;;5.23;3.50;;;;;;;;;;5073084;28;20206;-54
2023/04/01 01:52:36;;;;;;;5.00;3.30;;;;;;;;;;5073138;28;20544;-55
2023/04/01 01:55:17;;;;;;;4.00;3.47;;;;;;;;;;5073095;28;20204;-55
2023/04/01 01:57:45;;;;;;;3.40;3.10;;;;;;;;;;5072378;28;20281;-55
2023/04/01 02:00:15;;;;;;;6.90;3.40;;;;;;;;;;5072887;28;20203;-55
2023/04/01 02:02:42;;;;;;;3.23;2.93;;;;;;;;;;5072677;28;20203;-52
2023/04/01 02:05:09;;;;;;;3.80;3.00;;;;;;;;;;5072901;28;20199;-55
2023/04/01 02:07:36;;;;;;;4.10;3.00;;;;;;;;;;5073041;28;20238;-55
2023/04/01 02:10:02;;;;;;;3.43;3.07;;;;;;;;;;5072788;28;20206;-57
2023/04/01 02:12:29;;;;;;;3.70;3.00;;;;;;;;;;5072609;28;20226;-56
2023/04/01 02:14:58;;;;;;;4.30;2.87;;;;;;;;;;5072817;28;20286;-55
2023/04/01 02:17:26;;;;;;;3.00;2.37;;;;;;;;;;5072579;28;20238;-53
2023/04/01 02:19:53;;;;;;;3.03;2.73;;;;;;;;;;5072739;28;20215;-55
2023/04/01 02:22:21;;;;;;;3.00;2.30;;;;;;;;;;5072608;28;20210;-53
2023/04/01 02:24:48;;;;;;;4.80;2.63;;;;;;;;;;5072548;28;20206;-53
2023/04/01 02:27:14;;;;;;;4.37;2.80;;;;;;;;;;5072469;28;20310;-53
2023/04/01 02:29:40;;;;;;;3.27;2.60;;;;;;;;;;5072206;28;20302;-54
2023/04/01 02:32:09;;;;;;;3.90;2.77;;;;;;;;;;5072500;28;20199;-54
2023/04/01 02:34:35;;;;;;;4.70;2.80;;;;;;;;;;5072223;28;20763;-55
2023/04/01 02:37:02;;;;;;;3.10;2.63;;;;;;;;;;5072160;28;20199;-54
2023/04/01 02:39:28;;;;;;;4.07;3.00;;;;;;;;;;5071982;28;20461;-53
2023/04/01 02:41:54;;;;;;;4.70;2.73;;;;;;;;;;5072161;28;20641;-54
2023/04/01 02:44:20;;;;;;;4.00;2.60;;;;;;;;;;5072119;28;20557;-55
2023/04/01 02:46:46;;;;;;;3.03;2.40;;;;;;;;;;5071895;28;20228;-55
2023/04/01 02:49:13;;;;;;;2.93;2.50;;;;;;;;;;5072036;28;20245;-55
2023/04/01 02:51:39;;;;;;;5.20;2.60;;;;;;;;;;5071809;28;20203;-55
2023/04/01 02:54:05;;;;;;;2.43;2.20;;;;;;;;;;5072161;28;20191;-55
2023/04/01 02:56:31;;;;;;;3.33;1.97;;;;;;;;;;5071744;28;20290;-55
2023/04/01 02:58:57;;;;;;;4.83;2.20;;;;;;;;;;5053533;28;20234;-55
2023/04/01 03:01:23;;;;;;;2.90;2.30;;;;;;;;;;5071677;28;20199;-55
2023/04/01 03:03:49;;;;;;;2.87;2.00;;;;;;;;;;5071757;28;20199;-55
2023/04/01 03:06:17;;;;;;;4.23;2.30;;;;;;;;;;5071504;28;20261;-55
2023/04/01 03:08:44;;;;;;;4.17;2.43;;;;;;;;;;5071531;28;20208;-55
2023/04/01 03:11:10;;;;;;;3.77;2.10;;;;;;;;;;5071629;28;20222;-53
2023/04/01 03:13:36;;;;;;;3.27;2.33;;;;;;;;;;5071697;28;20199;-54
2023/04/01 03:16:02;;;;;;;4.23;2.50;;;;;;;;;;5053629;28;20245;-53
2023/04/01 03:18:28;;;;;;;2.27;1.90;;;;;;;;;;5071374;28;20203;-53
2023/04/01 03:20:54;;;;;;;3.17;2.20;;;;;;;;;;5071390;28;20227;-53
2023/04/01 03:23:24;;;;;;;2.70;2.00;;;;;;;;;;5071665;28;20196;-53
2023/04/01 03:25:50;;;;;;;2.33;2.10;;;;;;;;;;5071342;28;20208;-53
2023/04/01 03:28:16;;;;;;;2.33;2.00;;;;;;;;;;5071357;28;20233;-53
2023/04/01 03:30:42;;;;;;;3.03;1.90;;;;;;;;;;5071201;28;20203;-53
2023/04/01 03:33:08;;;;;;;6.00;2.20;;;;;;;;;;5071525;28;20219;-54
2023/04/01 03:35:35;;;;;;;3.67;2.00;;;;;;;;;;5071114;28;20705;-54
2023/04/01 03:38:01;;;;;;;1.90;1.80;;;;;;;;;;5071092;28;20231;-54
2023/04/01 03:40:29;;;;;;;3.20;2.10;;;;;;;;;;5071096;28;20569;-54
2023/04/01 03:42:55;;;;;;;3.60;1.70;;;;;;;;;;5071273;28;20298;-54
2023/04/01 03:45:22;;;;;;;2.07;1.87;;;;;;;;;;5071276;28;20245;-54
2023/04/01 03:47:48;;;;;;;2.20;1.87;;;;;;;;;;5070945;28;20325;-54
2023/04/01 03:50:13;;;;;;;2.33;1.77;;;;;;;;;;5071088;28;20736;-54
2023/04/01 03:52:39;;;;;;;3.00;1.90;;;;;;;;;;5071095;28;20278;-54
2023/04/01 03:55:06;;;;;;;2.40;1.87;;;;;;;;;;5071351;28;20585;-54
2023/04/01 03:57:33;;;;;;;2.80;1.97;;;;;;;;;;5070867;28;20195;-54
2023/04/01 03:59:59;;;;;;;2.33;1.50;;;;;;;;;;5071028;28;20225;-54
2023/04/01 04:02:25;;;;;;;1.90;1.70;;;;;;;;;;5070897;28;20211;-54
2023/04/01 04:04:51;;;;;;;1.57;1.47;;;;;;;;;;5071364;28;20628;-54
2023/04/01 04:07:17;;;;;;;2.97;1.80;;;;;;;;;;5070752;28;20223;-54
2023/04/01 04:09:44;;;;;;;2.00;1.70;;;;;;;;;;5070876;28;20222;-54
2023/04/01 04:12:10;;;;;;;3.77;1.70;;;;;;;;;;5072929;28;20230;-54
2023/04/01 04:14:37;;;;;;;1.80;1.53;;;;;;;;;;5075106;28;20595;-54
2023/04/01 04:17:03;;;;;;;2.33;1.60;;;;;;;;;;5074957;28;20562;-54
2023/04/01 04:19:33;;;;;;;2.13;1.40;;;;;;;;;;5074758;28;20546;-55
2023/04/01 04:22:01;;;;;;;3.00;1.50;;;;;;;;;;5074892;28;20206;-54
2023/04/01 04:24:27;;;;;;;2.77;1.33;;;;;;;;;;5074740;28;20191;-55
2023/04/01 04:26:53;;;;;;;2.43;1.60;;;;;;;;;;5074749;28;20273;-55
2023/04/01 04:29:19;;;;;;;3.20;1.50;;;;;;;;;;5074861;28;20200;-55
2023/04/01 04:31:46;;;;;;;1.93;1.33;;;;;;;;;;5074550;28;20464;-54
2023/04/01 04:34:12;;;;;;;3.17;1.60;;;;;;;;;;5074405;28;20715;-54
2023/04/01 04:36:38;;;;;;;2.50;1.30;;;;;;;;;;5074519;28;20191;-55
2023/04/01 04:39:04;;;;;;;2.30;1.50;;;;;;;;;;5073506;28;20227;-54
2023/04/01 04:41:30;;;;;;;3.60;1.73;;;;;;;;;;5073160;28;20259;-54
2023/04/01 04:43:58;;;;;;;1.77;1.40;;;;;;;;;;5073152;28;20195;-54
2023/04/01 04:46:24;;;;;;;2.53;1.47;;;;;;;;;;5072996;28;20218;-54
2023/04/01 04:48:52;;;;;;;3.20;2.03;;;;;;;;;;5073167;28;20207;-54
2023/04/01 04:51:19;;;;;;;3.17;1.50;;;;;;;;;;5073072;28;20207;-54
2023/04/01 04:53:45;;;;;;;1.60;1.50;;;;;;;;;;5072840;28;20230;-54
2023/04/01 04:56:11;;;;;;;2.20;1.53;;;;;;;;;;5072952;28;20286;-53
2023/04/01 04:58:38;;;;;;;1.43;1.33;;;;;;;;;;5073156;28;20248;-53
2023/04/01 05:01:08;;;;;;;3.00;1.57;;;;;;;;;;5073012;28;20202;-53
2023/04/01 05:03:34;;;;;;;2.50;1.50;;;;;;;;;;5072872;28;20197;-54
2023/04/01 05:06:01;;;;;;;2.40;1.40;;;;;;;;;;5072664;28;20219;-53
2023/04/01 05:08:27;;;;;;;3.40;1.50;;;;;;;;;;5072633;28;20210;-53
2023/04/01 05:10:53;;;;;;;1.60;1.50;;;;;;;;;;5072921;28;20286;-53
2023/04/01 05:13:19;;;;;;;2.70;1.87;;;;;;;;;;5072795;28;20637;-53
2023/04/01 05:15:45;;;;;;;1.57;1.47;;;;;;;;;;5072346;28;20281;-53
2023/04/01 05:18:11;;;;;;;3.90;1.70;;;;;;;;;;5072615;28;20245;-53
2023/04/01 05:20:37;;;;;;;4.27;1.60;;;;;;;;;;5072605;28;20231;-53
2023/04/01 05:23:05;;;;;;;3.77;1.70;;;;;;;;;;5072218;28;20653;-53
2023/04/01 05:25:31;;;;;;;2.43;1.67;;;;;;;;;;5072514;28;20210;-53
2023/04/01 05:27:57;;;;;;;2.93;1.67;;;;;;;;;;5072385;28;20215;-53
2023/04/01 05:30:23;;;;;;;1.53;1.43;;;;;;;;;;5072623;28;20207;-54
2023/04/01 05:32:49;;;;;;;2.30;1.50;;;;;;;;;;5072506;28;20199;-53
2023/04/01 05:35:15;;;;;;;1.80;1.40;;;;;;;;;;5072253;28;20599;-53
2023/04/01 05:37:41;;;;;;;2.63;1.50;;;;;;;;;;5032809;28;1121471;-53
2023/04/01 05:40:09;;;;;;;2.40;1.40;;;;;;;;;;5073532;28;20203;-53
2023/04/01 05:42:35;;;;;;;2.50;1.50;;;;;;;;;;5073645;28;20239;-53
2023/04/01 05:45:01;;;;;;;3.13;1.50;;;;;;;;;;5073243;28;20253;-53
2023/04/01 05:47:27;;;;;;;2.40;1.77;;;;;;;;;;5073129;28;20223;-54
2023/04/01 05:49:55;;;;;;;4.13;1.60;;;;;;;;;;5073077;28;20484;-53
2023/04/01 05:52:21;;;;;;;2.67;1.40;;;;;;;;;;5073346;28;20199;-53
2023/04/01 05:54:47;;;;;;;3.63;1.73;;;;;;;;;;5072940;28;20714;-53
2023/04/01 05:57:14;;;;;;;2.30;1.57;;;;;;;;;;5072995;28;20539;-54
2023/04/01 05:59:40;;;;;;;2.57;1.50;;;;;;;;;;5073061;28;20206;-53
2023/04/01 06:02:06;;;;;;;2.93;1.60;;;;;;;;;;5073180;28;20203;-53
2023/04/01 06:04:35;;;;;;;2.70;1.70;;;;;;;;;;5072729;28;20204;-54
2023/04/01 06:07:01;;;;;;;3.47;2.07;;;;;;;;;;5072820;28;20223;-55
2023/04/01 06:09:29;;;;;;;2.43;1.60;;;;;;;;;;5072753;28;20213;-54
2023/04/01 06:12:12;;;;;;;3.23;1.80;;;;;;;;;;5072881;28;20195;-55
2023/04/01 06:14:44;;;;;;;4.50;1.70;;;;;;;;;;5059109;28;20199;-55
2023/04/01 06:17:17;;;;;;;2.10;1.50;;;;;;;;;;5072715;28;20199;-55
2023/04/01 06:19:48;;;;;;;3.53;1.53;;;;;;;;;;5072408;28;20240;-54
2023/04/01 06:22:40;;;;;;;3.23;1.50;;;;;;;;;;5072497;28;20661;-55
2023/04/01 06:25:21;;;;;;;2.43;1.60;;;;;;;;;;5072795;28;20310;-55
2023/04/01 06:27:54;;;;;;;3.50;1.70;;;;;;;;;;5072285;28;20230;-54
2023/04/01 06:30:30;;;;;;;3.43;1.63;;;;;;;;;;5072608;28;20191;-53
2023/04/01 06:33:01;;;;;;;3.63;1.63;;;;;;;;;;5072363;28;20631;-53
2023/04/01 06:35:36;;;;;;;2.40;1.60;;;;;;;;;;5071294;28;20222;-55
2023/04/01 06:38:13;;;;;;;2.33;1.60;;;;;;;;;;5072083;28;20314;-54
2023/04/01 06:40:45;;;;;;;2.07;1.50;;;;;;;;;;5072250;28;20230;-54
2023/04/01 06:43:16;;;;;;;3.37;1.53;;;;;;;;;;5072195;28;20195;-53
2023/04/01 06:45:50;;;;;;;3.90;1.60;;;;;;;;;;5071931;28;20192;-53
2023/04/01 06:48:22;;;;;;;1.93;1.50;;;;;;;;;;5071929;28;20277;-53
2023/04/01 06:50:54;;;;;;;1.97;1.50;;;;;;;;;;5072076;28;20192;-53
2023/04/01 06:53:22;;;;;;;4.37;1.60;;;;;;;;;;5072153;28;20191;-53
2023/04/01 06:55:49;;;;;;;1.77;1.60;;;;;;;;;;5071762;28;20195;-54
2023/04/01 06:58:19;;;;;;;3.20;2.00;;;;;;;;;;5071798;28;20272;-53
2023/04/01 07:00:49;;;;;;;1.93;1.63;;;;;;;;;;5071637;28;20204;-54
2023/04/01 07:03:20;;;;;;;1.90;1.70;;;;;;;;;;5071695;28;20200;-54
2023/04/01 07:05:46;;;;;;;2.43;1.90;;;;;;;;;;5071546;28;20215;-54
2023/04/01 07:08:13;;;;;;;3.90;1.77;;;;;;;;;;5071568;28;20227;-54
2023/04/01 07:10:43;;;;;;;2.53;1.73;;;;;;;;;;5071527;28;20196;-54
2023/04/01 07:13:13;;;;;;;4.33;2.43;;;;;;;;;;5053709;28;20720;-54
2023/04/01 07:15:41;;;;;;;1.63;1.40;;;;;;;;;;5071442;28;20203;-54
2023/04/01 07:18:12;;;;;;;1.87;1.50;;;;;;;;;;5071615;28;20199;-54
2023/04/01 07:20:38;;;;;;;2.50;1.63;;;;;;;;;;5071429;28;20220;-53
2023/04/01 07:23:06;;;;;;;4.03;1.63;;;;;;;;;;5071565;28;20200;-54
2023/04/01 07:25:34;;;;;;;3.87;1.80;;;;;;;;;;5071096;28;20207;-54
2023/04/01 07:28:03;;;;;;;2.10;1.53;;;;;;;;;;5071042;28;20223;-54
2023/04/01 07:30:31;;;;;;;4.03;1.60;;;;;;;;;;5071094;28;20447;-54
2023/04/01 07:33:00;;;;;;;1.57;1.27;;;;;;;;;;5071215;28;20286;-54
2023/04/01 07:35:29;;;;;;;1.93;1.30;;;;;;;;;;5071055;28;20268;-53
2023/04/01 07:38:02;;;;;;;3.47;1.83;;;;;;;;;;5070906;28;20228;-54
2023/04/01 07:40:32;;;;;;;3.03;1.40;;;;;;;;;;5071069;28;20656;-54
2023/04/01 07:43:08;;;;;;;3.47;1.50;;;;;;;;;;5071148;28;20203;-55
2023/04/01 07:45:38;;;;;;;2.07;1.60;;;;;;;;;;5071075;28;20195;-54
2023/04/01 07:48:10;;;;;;;2.53;1.60;;;;;;;;;;5071198;28;20326;-55
2023/04/01 07:50:40;;;;;;;3.53;1.40;;;;;;;;;;5071071;28;20203;-56
2023/04/01 07:53:10;;;;;;;3.90;1.50;;;;;;;;;;5071293;28;20211;-54
2023/04/01 07:55:39;;;;;;;1.93;1.10;;;;;;;;;;5071105;28;20203;-56
2023/04/01 07:58:08;;;;;;;1.17;1.00;;;;;;;;;;5070695;28;20200;-55
2023/04/01 08:00:40;;;;;;;1.60;1.23;;;;;;;;;;5070969;28;20204;-58
2023/04/01 08:03:13;;;;;;;1.23;1.13;;;;;;;;;;5071146;28;20213;-55
2023/04/01 08:05:46;;;;;;;4.20;1.20;;;;;;;;;;5070834;28;20199;-53
2023/04/01 08:08:16;;;;;;;1.97;1.30;;;;;;;;;;5070822;28;20238;-54
2023/04/01 08:10:46;;;;;;;2.70;1.23;;;;;;;;;;5071022;28;20302;-55
2023/04/01 08:13:17;;;;;;;1.30;1.20;;;;;;;;;;5071135;28;20199;-53
2023/04/01 08:15:46;;;;;;;1.30;1.20;;;;;;;;;;5070793;28;20459;-55
2023/04/01 08:18:17;;;;;;;1.73;1.30;;;;;;;;;;5071042;28;20601;-54
2023/04/01 08:20:47;;;;;;;1.30;1.20;;;;;;;;;;5070904;28;20204;-53
2023/04/01 08:23:14;;;;;;;4.70;1.67;;;;;;;;;;5071006;28;20203;-54
2023/04/01 08:25:42;;;;;;;1.63;1.20;;;;;;;;;;5068777;28;20222;-53
2023/04/01 08:28:15;;;;;;;1.23;1.07;;;;;;;;;;5070562;28;20228;-53
2023/04/01 08:30:44;;;;;;;1.10;1.00;;;;;;;;;;5070315;28;20245;-53
2023/04/01 08:33:13;;;;;;;1.33;1.00;;;;;;;;;;5070565;28;20196;-54
2023/04/01 08:35:41;;;;;;;1.47;1.13;;;;;;;;;;5070316;28;20242;-53
2023/04/01 08:38:11;;;;;;;1.47;1.30;;;;;;;;;;5070393;28;20281;-53
2023/04/01 08:40:57;;;;;;;1.60;1.20;;;;;;;;;;5070498;28;20199;-59
2023/04/01 08:43:29;;;;;;;2.27;1.10;;;;;;;;;;5070509;28;20234;-53
2023/04/01 08:46:07;;;;;;;1.40;1.13;;;;;;;;;;5070230;28;20199;-54
2023/04/01 08:48:43;;;;;;;1.57;1.20;;;;;;;;;;5070092;28;20282;-53
2023/04/01 08:51:26;;;;;;;1.20;1.10;;;;;;;;;;5070455;28;20283;-54
2023/04/01 08:54:03;;;;;;;1.47;0.97;;;;;;;;;;5068537;28;20711;-54
2023/04/01 08:56:34;;;;;;;1.77;0.97;;;;;;;;;;5047872;28;20200;-54
2023/04/01 08:59:18;;;;;;;1.80;1.20;;;;;;;;;;5053222;28;20195;-54
2023/04/01 09:01:52;;;;;;;1.80;1.10;;;;;;;;;;5053934;28;20195;-54
2023/04/01 09:04:24;;;;;;;1.63;1.10;;;;;;;;;;5054063;28;20238;-55
2023/04/01 09:06:55;;;;;;;0.90;0.90;;;;;;;;;;5053768;28;20761;-54
2023/04/01 09:09:37;;;;;;;1.43;1.00;;;;;;;;;;5054050;28;20200;-54
2023/04/01 09:12:24;;;;;;;2.00;1.23;;;;;;;;;;5053909;28;20208;-55
2023/04/01 09:14:59;;;;;;;1.50;0.90;;;;;;;;;;5053448;28;20578;-54
2023/04/01 09:17:43;;;;;;;0.90;0.90;;;;;;;;;;5053717;28;20192;-54
2023/04/01 09:20:18;;;;;;;0.57;0.57;;;;;;;;;;5053507;28;20283;-54
2023/04/01 09:22:51;;;;;;;1.03;0.80;;;;;;;;;;5053001;28;20207;-54
2023/04/01 09:25:45;;;;;;;0.87;0.80;;;;;;;;;;5052185;28;20557;-53
2023/04/01 09:28:18;;;;;;;1.57;1.10;;;;;;;;;;5006697;28;20243;-55
2023/04/01 09:31:04;;;;;;;0.90;0.90;;;;;;;;;;5053223;28;20200;-53
2023/04/01 09:33:43;;;;;;;0.70;0.70;;;;;;;;;;5053475;28;20196;-54
2023/04/01 09:36:13;;;;;;;1.67;1.10;;;;;;;;;;5053517;28;20200;-54
2023/04/01 09:38:47;;;;;;;2.30;1.00;;;;;;;;;;5049386;28;20267;-54
2023/04/01 09:41:19;;;;;;;0.70;0.70;;;;;;;;;;5053692;28;20243;-55
2023/04/01 09:43:54;;;;;;;0.70;0.70;;;;;;;;;;5053540;28;20269;-55
2023/04/01 09:46:24;;;;;;;1.53;1.00;;;;;;;;;;5053565;28;20566;-55
2023/04/01 09:49:06;;;;;;;2.90;1.10;;;;;;;;;;5053485;28;20208;-55
2023/04/01 09:51:36;;;;;;;0.87;0.87;;;;;;;;;;5053470;28;20250;-55
2023/04/01 09:54:08;;;;;;;1.33;0.87;;;;;;;;;;5053330;28;20211;-54
2023/04/01 09:57:03;;;;;;;1.00;0.70;;;;;;;;;;5053261;28;20551;-55
2023/04/01 09:59:41;;;;;;;2.03;0.90;;;;;;;;;;5053342;28;20204;-54
2023/04/01 10:02:30;;;;;;;0.80;0.80;;;;;;;;;;5053386;28;20207;-54
2023/04/01 10:05:20;;;;;;;0.80;0.80;;;;;;;;;;5033067;28;20654;-55
2023/04/01 10:08:09;;;;;;;1.00;0.90;;;;;;;;;;5053011;28;20220;-54
2023/04/01 10:10:56;;;;;;;1.70;0.90;;;;;;;;;;5051952;28;20294;-54
2023/04/01 10:13:41;;;;;;;0.80;0.80;;;;;;;;;;5053156;28;20662;-54
2023/04/01 10:16:20;;;;;;;0.90;0.90;;;;;;;;;;5053255;28;20188;-54
2023/04/01 10:18:55;;;;;;;0.60;0.60;;;;;;;;;;5052678;28;20760;-56
2023/04/01 10:21:49;;;;;;;1.17;0.80;;;;;;;;;;5053062;28;20219;-55
2023/04/01 10:24:38;;;;;;;0.70;0.70;;;;;;;;;;5006271;28;20205;-56
2023/04/01 10:27:13;;;;;;;0.67;0.67;;;;;;;;;;5052796;28;20309;-54
2023/04/01 10:29:59;;;;;;;0.80;0.80;;;;;;;;;;5052865;28;20217;-55
2023/04/01 10:32:50;;;;;;;0.67;0.67;;;;;;;;;;5052824;28;20200;-55
2023/04/01 10:35:24;;;;;;;1.13;1.03;;;;;;;;;;5052421;28;20224;-55
2023/04/01 10:37:59;;;;;;;0.80;0.80;;;;;;;;;;5052525;28;20219;-56
2023/04/01 10:40:31;;;;;;;1.27;1.10;;;;;;;;;;5052563;28;20211;-55
2023/04/01 10:43:10;;;;;;;1.10;1.00;;;;;;;;;;5052338;28;20234;-56
2023/04/01 10:45:46;;;;;;;2.37;1.20;;;;;;;;;;5052245;28;20200;-55
2023/04/01 10:48:22;;;;;;;1.80;1.20;;;;;;;;;;5052223;28;20310;-56
2023/04/01 10:51:02;;;;;;;1.43;0.90;;;;;;;;;;5052423;28;20208;-56
2023/04/01 10:53:34;;;;;;;0.87;0.87;;;;;;;;;;5052320;28;20223;-55
2023/04/01 10:56:15;;;;;;;1.20;0.90;;;;;;;;;;5052143;28;20650;-55
2023/04/01 10:58:54;;;;;;;1.63;0.97;;;;;;;;;;5008386;28;20662;-55
2023/04/01 11:01:28;;;;;;;0.80;0.80;;;;;;;;;;5052391;28;20196;-55
2023/04/01 11:04:12;;;;;;;0.80;0.80;;;;;;;;;;5051945;28;20674;-55
2023/04/01 11:06:56;;;;;;;2.00;0.90;;;;;;;;;;5051912;28;20220;-54
2023/04/01 11:09:34;;;;;;;1.03;0.97;;;;;;;;;;5052230;28;20200;-55
2023/04/01 11:12:26;;;;;;;2.87;1.30;;;;;;;;;;5052079;28;20267;-54
2023/04/01 11:15:06;;;;;;;4.03;1.30;;;;;;;;;;5051945;28;20741;-53
2023/04/01 11:17:51;;;;;;;1.30;1.20;;;;;;;;;;5049110;28;20650;-54
2023/04/01 11:26:32;;;;;;;1.73;1.63;;;;;;;;;;5050193;28;20179;-53
2023/04/01 11:44:41;;;;;;;2.10;1.90;;;;;;;;;;5007405;28;20303;-54
2023/04/01 12:29:38;;;;;;;0.90;0.90;;;;;;;;;;4923108;29;20208;-52
2023/04/01 13:11:58;;;;;;;1.00;1.00;;;;;;;;;;5005564;28;20255;-50
2023/04/01 13:14:41;;;;;;;1.03;0.97;;;;;;;;;;5012684;28;20213;-51
2023/04/01 13:17:10;;;;;;;0.93;0.90;;;;;;;;;;5014425;28;20228;-50
2023/04/01 13:19:38;;;;;;;1.00;1.00;;;;;;;;;;5014102;28;20213;-51
2023/04/01 13:22:07;;;;;;;1.20;1.00;;;;;;;;;;5014392;28;20567;-52
2023/04/01 13:24:40;;;;;;;0.80;0.80;;;;;;;;;;5014312;28;20201;-51
2023/04/01 13:27:10;;;;;;;0.90;0.90;;;;;;;;;;5014155;28;20316;-52
2023/04/01 13:29:38;;;;;;;0.90;0.90;;;;;;;;;;5013928;28;20228;-51
2023/04/01 13:32:09;;;;;;;1.00;1.00;;;;;;;;;;5013714;28;20694;-54
2023/04/01 13:34:39;;;;;;;1.00;1.00;;;;;;;;;;5013835;28;20648;-53
2023/04/01 13:37:15;;;;;;;0.70;0.70;;;;;;;;;;5014061;28;20197;-52
2023/04/01 13:39:45;;;;;;;0.80;0.80;;;;;;;;;;5013683;28;20986;-52
2023/04/01 13:42:19;;;;;;;1.00;0.80;;;;;;;;;;5013931;28;20201;-53
2023/04/01 13:44:47;;;;;;;2.57;1.40;;;;;;;;;;5013528;28;20209;-52
2023/04/01 13:47:34;;;;;;;0.80;0.80;;;;;;;;;;5013760;28;20291;-53
2023/04/01 13:50:18;;;;;;;0.80;0.80;;;;;;;;;;5007370;28;20209;-51
2023/04/01 13:52:52;;;;;;;1.30;1.20;;;;;;;;;;5013059;28;20210;-51
2023/04/01 13:55:26;;;;;;;1.10;1.10;;;;;;;;;;5013574;28;20237;-52
2023/04/01 13:58:12;;;;;;;1.17;1.10;;;;;;;;;;5013300;28;20718;-51
2023/04/01 14:00:47;;;;;;;0.90;0.90;;;;;;;;;;5013590;28;20205;-52
2023/04/01 14:03:22;;;;;;;1.00;1.00;;;;;;;;;;5013372;28;20603;-52
2023/04/01 14:05:55;;;;;;;1.13;0.90;;;;;;;;;;5012882;28;20569;-52
2023/04/01 14:08:27;;;;;;;1.00;0.90;;;;;;;;;;5013218;28;20232;-51
2023/04/01 14:10:57;;;;;;;1.63;1.40;;;;;;;;;;5013448;28;20201;-52
2023/04/01 14:13:30;;;;;;;1.10;1.00;;;;;;;;;;5013452;28;20554;-51
2023/04/01 14:16:05;;;;;;;0.70;0.70;;;;;;;;;;5013399;28;20239;-52
2023/04/01 14:18:37;;;;;;;0.90;0.90;;;;;;;;;;5013110;28;20658;-51
2023/04/01 14:21:13;;;;;;;0.90;0.90;;;;;;;;;;5013128;28;20718;-52
2023/04/01 14:23:48;;;;;;;1.00;1.00;;;;;;;;;;5012884;28;20685;-52
2023/04/01 14:26:22;;;;;;;1.97;1.30;;;;;;;;;;5013401;28;20304;-53
2023/04/01 14:28:53;;;;;;;1.13;1.07;;;;;;;;;;5012675;28;20225;-52
2023/04/01 14:31:24;;;;;;;0.90;0.90;;;;;;;;;;5011045;28;20212;-52
2023/04/01 14:33:58;;;;;;;1.03;0.90;;;;;;;;;;5010974;28;20240;-52
2023/04/01 14:36:31;;;;;;;1.40;1.30;;;;;;;;;;5012603;28;20204;-52
2023/04/01 14:39:02;;;;;;;3.47;1.20;;;;;;;;;;5013287;28;20240;-51
2023/04/01 14:41:34;;;;;;;0.97;0.97;;;;;;;;;;5013242;28;20367;-52
2023/04/01 14:44:17;;;;;;;1.00;1.00;;;;;;;;;;5013086;28;20592;-51
2023/04/01 14:46:59;;;;;;;0.70;0.70;;;;;;;;;;5012947;28;20328;-51
2023/04/01 14:49:31;;;;;;;1.20;1.10;;;;;;;;;;5012978;28;20566;-50
2023/04/01 14:52:04;;;;;;;1.20;1.10;;;;;;;;;;5013158;28;20201;-51
2023/04/01 14:54:31;;;;;;;2.00;1.60;;;;;;;;;;5012951;28;20208;-50
2023/04/01 14:57:05;;;;;;;1.20;1.10;;;;;;;;;;5012243;28;20267;-51
2023/04/01 14:59:33;;;;;;;1.20;1.10;;;;;;;;;;4993157;28;20280;-52
2023/04/01 15:02:01;;;;;;;0.90;0.90;;;;;;;;;;4993355;28;20206;-52
2023/04/01 15:04:36;;;;;;;9.00;1.20;;;;;;;;;;4993085;28;20212;-51
2023/04/01 15:07:19;;;;;;;1.37;0.90;;;;;;;;;;4993187;28;20213;-51
2023/04/01 15:09:51;;;;;;;0.93;0.93;;;;;;;;;;4992892;28;20249;-51
2023/04/01 15:12:23;;;;;;;1.10;1.10;;;;;;;;;;4992959;28;20198;-51
2023/04/01 15:14:56;;;;;;;3.23;2.60;;;;;;;;;;4992861;28;20194;-51
2023/04/01 15:17:30;;;;;;;3.33;2.47;;;;;;;;;;4992857;28;20318;-51
2023/04/01 15:20:03;;;;;;;3.10;2.40;;;;;;;;;;4993018;28;20237;-54
2023/04/01 15:22:38;;;;;;;1.77;1.10;;;;;;;;;;4992890;28;20293;-53
2023/04/01 15:25:17;;;;;;;1.27;1.17;;;;;;;;;;4992822;28;20201;-54
2023/04/01 15:27:49;;;;;;;0.80;0.80;;;;;;;;;;4992890;28;20221;-54
2023/04/01 15:30:30;;;;;;;1.43;1.10;;;;;;;;;;4992812;28;20213;-54
2023/04/01 15:33:04;;;;;;;1.00;1.00;;;;;;;;;;4990733;28;20206;-54
2023/04/01 15:35:35;;;;;;;1.33;1.10;;;;;;;;;;4992780;28;20221;-53
2023/04/01 15:38:04;;;;;;;1.33;1.23;;;;;;;;;;4992669;28;20194;-54
2023/04/01 15:40:31;;;;;;;0.90;0.90;;;;;;;;;;4992689;28;20290;-50
2023/04/01 15:43:21;;;;;;;1.30;1.20;;;;;;;;;;4992662;28;20257;-52
2023/04/01 15:45:52;;;;;;;1.80;1.20;;;;;;;;;;4988910;28;20217;-51
2023/04/01 15:48:28;;;;;;;1.83;1.13;;;;;;;;;;4992389;28;20218;-52
2023/04/01 15:51:03;;;;;;;1.23;1.13;;;;;;;;;;4992517;28;20296;-51
2023/04/01 15:53:36;;;;;;;1.50;1.40;;;;;;;;;;4990426;28;20208;-51
2023/04/01 15:56:11;;;;;;;1.50;1.40;;;;;;;;;;4991890;28;20321;-51
2023/04/01 15:58:44;;;;;;;1.60;1.50;;;;;;;;;;5004581;28;20694;-51
2023/04/01 16:01:16;;;;;;;1.20;1.10;;;;;;;;;;5011500;28;20597;-51
2023/04/01 16:03:49;;;;;;;1.20;1.20;;;;;;;;;;5011457;28;20250;-52
2023/04/01 16:06:24;;;;;;;1.70;1.60;;;;;;;;;;5011820;28;20224;-52
2023/04/01 16:09:04;;;;;;;1.50;1.40;;;;;;;;;;5015377;28;20324;-52
2023/04/01 16:11:40;;;;;;;1.37;1.20;;;;;;;;;;5015611;28;20236;-52
2023/04/01 16:14:11;;;;;;;1.70;1.60;;;;;;;;;;5015388;28;20690;-52
2023/04/01 16:16:47;;;;;;;1.50;1.40;;;;;;;;;;5015603;28;20197;-52
2023/04/01 16:19:22;;;;;;;1.83;1.43;;;;;;;;;;5015529;28;20287;-52
2023/04/01 16:21:50;;;;;;;1.50;1.40;;;;;;;;;;5015187;28;20200;-52
2023/04/01 16:24:20;;;;;;;1.37;1.27;;;;;;;;;;5015281;28;20225;-52
2023/04/01 16:26:50;;;;;;;1.83;1.10;;;;;;;;;;5015106;28;20655;-52
2023/04/01 16:29:20;;;;;;;1.20;1.13;;;;;;;;;;5015850;28;20205;-52
2023/04/01 16:31:49;;;;;;;1.30;1.20;;;;;;;;;;5015462;28;20197;-52
2023/04/01 16:34:17;;;;;;;1.67;1.57;;;;;;;;;;5015723;28;20203;-52
2023/04/01 16:36:47;;;;;;;1.20;1.20;;;;;;;;;;5015490;28;20347;-52
2023/04/01 16:39:27;;;;;;;1.03;1.03;;;;;;;;;;5015469;28;20202;-52
2023/04/01 16:42:10;;;;;;;1.20;1.20;;;;;;;;;;5015435;28;20225;-52
2023/04/01 16:44:47;;;;;;;1.77;1.63;;;;;;;;;;5015183;28;20208;-51
2023/04/01 16:47:14;;;;;;;1.50;1.40;;;;;;;;;;5015269;28;20381;-52
2023/04/01 16:49:42;;;;;;;1.93;1.50;;;;;;;;;;5015175;28;20233;-52
2023/04/01 16:52:17;;;;;;;1.13;1.13;;;;;;;;;;5015256;28;20202;-52
2023/04/01 16:54:46;;;;;;;1.27;1.20;;;;;;;;;;5015093;28;20197;-52